Hangu, China
Current Conditions -  °F | °C
As of 2:30 PM on Wednesday 22 Oct 2014 (Local Time) from ZBTJ Reporting Station
Clear Clear  
Wind Chill: 61°   Ceiling: Unl
Heat Index: 61°   Visibility: 6mi
Dew Point: 41°   Wind: 7mph
Humidity: 48%   Direction: 230°SW
Pressure: 30.15"   Gusts: NA
Location:  39.23°N, 117.78°E
Report Text: ZBTJ 220630Z 23003MPS 170V260 CAVOK 16/05 Q1021 NOSIG
Loading
Personal Weather Stations






























Interactive Weather Map
Tropical Storm Tracking
New forecast layout! Learn more

10-Day Weather Forecast

Advertisements
Track Severe Weather on mobile